createdAt,value
2019-04-22T00:11:48.517Z,6.94
2019-04-22T00:14:06.323Z,6.91
2019-04-22T00:16:53.271Z,6.88
2019-04-22T00:22:07.769Z,6.75
2019-04-22T00:24:38.964Z,6.73
2019-04-22T00:27:26.137Z,6.66
2019-04-22T00:32:30.338Z,6.54
2019-04-22T00:35:03.901Z,6.46
2019-04-22T00:51:01.363Z,6.36
2019-04-22T01:04:36.475Z,6.19
2019-04-22T01:07:09.260Z,6.09
2019-04-22T01:21:21.482Z,5.80
2019-04-22T01:23:34.517Z,5.75
2019-04-22T01:37:37.298Z,5.80
2019-04-22T01:40:21.441Z,5.72
2019-04-22T02:04:52.407Z,5.17
2019-04-22T02:07:26.262Z,5.26
2019-04-22T02:20:39.630Z,5.38
2019-04-22T02:28:41.102Z,5.30
2019-04-22T02:31:25.866Z,5.23
2019-04-22T02:36:22.490Z,5.25
2019-04-22T02:49:29.151Z,5.20
2019-04-22T02:52:06.339Z,5.16
2019-04-22T03:37:20.620Z,5.85
2019-04-22T03:53:15.011Z,6.26
2019-04-22T03:55:45.040Z,6.37
2019-04-22T04:09:50.024Z,6.76
2019-04-22T04:12:26.030Z,6.87
2019-04-22T04:26:05.153Z,7.40
2019-04-22T04:45:11.005Z,7.84
2019-04-22T04:50:06.990Z,8.12
2019-04-22T04:52:50.903Z,8.31
2019-04-22T05:11:58.318Z,9.56
2019-04-22T05:24:44.316Z,10.31
2019-04-22T05:27:31.449Z,10.42
2019-04-22T05:30:21.230Z,10.50
2019-04-22T05:32:30.711Z,10.62
2019-04-22T05:46:20.616Z,11.22
2019-04-22T05:48:54.218Z,11.34
2019-04-22T05:51:31.514Z,11.57
2019-04-22T05:54:12.418Z,11.71
2019-04-22T06:08:04.203Z,12.10
2019-04-22T06:10:46.610Z,12.23
2019-04-22T06:24:23.276Z,12.93
2019-04-22T06:29:26.643Z,13.04
2019-04-22T06:43:10.320Z,13.62
2019-04-22T06:45:35.047Z,13.76
2019-04-22T06:54:01.712Z,14.41
2019-04-22T06:56:35.810Z,14.31
2019-04-22T07:05:35.605Z,14.58
2019-04-22T07:08:16.046Z,14.64
2019-04-22T07:10:42.022Z,14.69
2019-04-22T07:13:23.569Z,14.72
2019-04-22T07:20:56.402Z,15.20
2019-04-22T07:23:34.835Z,15.38
2019-04-22T07:26:08.597Z,15.62
2019-04-22T07:28:42.254Z,15.76
2019-04-22T07:31:17.368Z,15.72
2019-04-22T07:33:51.742Z,15.73
2019-04-22T07:38:56.475Z,15.90
2019-04-22T07:41:34.450Z,16.19
2019-04-22T07:44:13.854Z,16.29
2019-04-22T07:46:43.171Z,16.39
2019-04-22T07:49:18.351Z,16.44
2019-04-22T07:52:03.324Z,16.53
2019-04-22T07:54:29.209Z,16.72
2019-04-22T07:57:12.134Z,16.75
2019-04-22T07:59:40.868Z,16.79
2019-04-22T08:02:15.781Z,17.04
2019-04-22T08:07:29.976Z,17.16
2019-04-22T08:10:12.515Z,17.43
2019-04-22T08:15:05.781Z,18.08
2019-04-22T08:20:19.281Z,18.56
2019-04-22T08:23:01.133Z,18.48
2019-04-22T08:25:27.170Z,18.74
2019-04-22T08:28:05.427Z,18.83
2019-04-22T08:30:41.162Z,18.92
2019-04-22T08:33:16.067Z,19.14
2019-04-22T08:36:00.077Z,19.40
2019-04-22T08:41:20.860Z,19.67
2019-04-22T08:44:02.433Z,19.76
2019-04-22T08:51:30.877Z,20.51
2019-04-22T08:54:06.137Z,20.68
2019-04-22T08:56:56.880Z,20.85
2019-04-22T08:59:12.543Z,20.87
2019-04-22T09:01:45.353Z,21.02
2019-04-22T09:04:16.263Z,20.79
2019-04-22T09:07:07.667Z,21.04
2019-04-22T09:21:12.212Z,22.05
2019-04-22T09:23:33.923Z,22.28
2019-04-22T09:39:19.518Z,20.81
2019-04-22T09:41:46.548Z,21.11
2019-04-22T09:44:23.090Z,22.05
2019-04-22T09:47:00.344Z,22.97
2019-04-22T10:00:25.363Z,24.49
2019-04-22T10:17:03.264Z,24.31
2019-04-22T10:19:30.031Z,24.46
2019-04-22T10:22:14.964Z,24.06
2019-04-22T10:24:45.103Z,24.29
2019-04-22T10:27:24.361Z,24.33
2019-04-22T10:30:02.798Z,24.61
2019-04-22T10:32:25.540Z,24.85
2019-04-22T10:34:47.695Z,24.49
2019-04-22T10:37:17.066Z,24.95
2019-04-22T10:39:55.126Z,24.72
2019-04-22T10:42:23.064Z,24.75
2019-04-22T10:51:34.886Z,25.36
2019-04-22T10:54:07.284Z,25.97
2019-04-22T11:07:19.394Z,27.32
2019-04-22T11:09:58.969Z,27.72
2019-04-22T11:23:50.396Z,28.42
2019-04-22T11:26:23.950Z,29.10
2019-04-22T11:40:25.429Z,29.34
2019-04-22T11:42:52.224Z,31.39
2019-04-22T11:45:29.273Z,30.56
2019-04-22T11:48:01.403Z,30.87
2019-04-22T11:50:40.038Z,29.89
2019-04-22T11:53:10.968Z,27.79
2019-04-22T12:07:12.844Z,29.14
2019-04-22T12:09:45.837Z,29.31
2019-04-22T12:12:23.630Z,30.32
2019-04-22T12:14:56.362Z,31.05
2019-04-22T12:17:36.058Z,31.45
2019-04-22T12:20:12.544Z,31.48
2019-04-22T12:22:54.949Z,32.31
2019-04-22T12:29:15.380Z,32.52
2019-04-22T12:31:47.567Z,32.62
2019-04-22T12:34:25.754Z,31.62
2019-04-22T12:36:58.398Z,30.92
2019-04-22T12:46:52.266Z,24.82
2019-04-22T13:18:06.087Z,31.07
2019-04-22T13:20:30.445Z,29.75
2019-04-22T13:23:04.028Z,26.75
2019-04-22T13:25:34.854Z,25.48
2019-04-22T13:28:09.238Z,27.00
2019-04-22T13:30:40.903Z,28.43
2019-04-22T13:33:16.810Z,26.66
2019-04-22T13:35:50.067Z,24.58
2019-04-22T13:38:22.771Z,27.57
2019-04-22T13:41:09.816Z,29.84
2019-04-22T13:43:31.229Z,30.90
2019-04-22T13:46:06.034Z,30.90
2019-04-22T13:48:59.083Z,27.56
2019-04-22T13:51:45.069Z,24.87
2019-04-22T13:54:40.441Z,23.36
2019-04-22T13:56:37.349Z,22.07
2019-04-22T13:58:58.490Z,21.56
2019-04-22T14:01:25.549Z,21.08
2019-04-22T14:04:00.801Z,22.26
2019-04-22T14:06:32.861Z,25.85
2019-04-22T14:09:07.656Z,27.72
2019-04-22T14:11:46.167Z,29.11
2019-04-22T14:14:12.617Z,30.60
2019-04-22T14:16:46.902Z,30.66
2019-04-22T14:19:18.393Z,30.14
2019-04-22T14:21:49.736Z,30.38
2019-04-22T14:24:23.716Z,29.91
2019-04-22T14:27:13.577Z,26.91
2019-04-22T14:29:29.329Z,25.74
2019-04-22T14:34:34.260Z,27.48
2019-04-22T14:37:05.769Z,25.84
2019-04-22T14:39:37.966Z,25.25
2019-04-22T14:42:28.458Z,23.37
2019-04-22T14:44:03.788Z,27.07
2019-04-22T14:45:20.539Z,21.99
2019-04-22T14:47:45.536Z,21.19
2019-04-22T14:50:16.076Z,20.71
2019-04-22T14:52:46.238Z,20.28
2019-04-22T14:55:06.073Z,19.94
2019-04-22T14:57:32.306Z,19.75
2019-04-22T15:00:06.139Z,19.64
2019-04-22T15:02:39.419Z,19.27
2019-04-22T15:05:12.243Z,19.57
2019-04-22T15:07:44.406Z,19.51
2019-04-22T15:10:15.999Z,19.27
2019-04-22T15:12:51.377Z,18.98
2019-04-22T15:15:40.554Z,18.93
2019-04-22T15:18:11.597Z,19.00
2019-04-22T15:20:47.464Z,20.83
2019-04-22T15:23:16.849Z,22.30
2019-04-22T15:25:48.392Z,22.84
2019-04-22T15:28:19.643Z,23.09
2019-04-22T15:30:51.197Z,23.03
2019-04-22T15:33:25.609Z,22.85
2019-04-22T15:35:56.463Z,22.26
2019-04-22T15:38:28.259Z,21.26
2019-04-22T15:41:00.749Z,21.19
2019-04-22T15:43:35.113Z,21.38
2019-04-22T15:46:05.698Z,21.60
2019-04-22T15:48:37.703Z,21.83
2019-04-22T15:51:10.938Z,21.96
2019-04-22T15:53:43.044Z,21.89
2019-04-22T15:56:14.742Z,21.79
2019-04-22T15:58:46.064Z,21.72
2019-04-22T16:01:25.196Z,21.53
2019-04-22T16:03:50.595Z,21.23
2019-04-22T16:06:23.999Z,20.53
2019-04-22T16:08:59.958Z,19.84
2019-04-22T16:11:31.798Z,19.25
2019-04-22T16:14:04.311Z,18.78
2019-04-22T16:16:37.202Z,18.42
2019-04-22T16:19:09.531Z,18.12
2019-04-22T16:21:49.034Z,17.85
2019-04-22T16:24:27.917Z,17.37
2019-04-22T16:27:04.697Z,17.59
2019-04-22T16:29:37.201Z,17.43
2019-04-22T16:32:09.470Z,17.34
2019-04-22T16:34:40.297Z,17.19
2019-04-22T16:37:14.639Z,16.98
2019-04-22T16:39:48.453Z,16.99
2019-04-22T16:42:28.956Z,16.92
2019-04-22T16:44:51.306Z,16.81
2019-04-22T16:47:23.663Z,16.83
2019-04-22T16:49:55.330Z,16.73
2019-04-22T16:52:28.066Z,16.59
2019-04-22T16:55:01.089Z,16.47
2019-04-22T16:57:33.604Z,16.45
2019-04-22T17:00:11.168Z,16.39
2019-04-22T17:02:51.831Z,16.24
2019-04-22T17:05:41.478Z,16.05
2019-04-22T17:08:14.263Z,15.97
2019-04-22T17:10:46.050Z,15.93
2019-04-22T17:13:24.488Z,15.91
2019-04-22T17:15:52.017Z,15.79
2019-04-22T17:18:23.274Z,15.73
2019-04-22T17:20:55.782Z,15.60
2019-04-22T17:23:29.673Z,15.52
2019-04-22T17:26:03.239Z,15.43
2019-04-22T17:28:35.547Z,15.23
2019-04-22T17:31:06.716Z,15.15
2019-04-22T17:33:39.389Z,15.11
2019-04-22T17:36:12.009Z,14.99
2019-04-22T17:38:50.898Z,14.90
2019-04-22T17:41:24.314Z,14.83
2019-04-22T17:44:16.855Z,14.78
2019-04-22T17:46:35.942Z,14.73
2019-04-22T17:49:21.900Z,14.64
2019-04-22T17:52:17.669Z,14.53
2019-04-22T17:54:49.672Z,14.42
2019-04-22T17:57:21.577Z,14.32
2019-04-22T17:59:51.776Z,14.23
2019-04-22T18:02:25.214Z,14.17
2019-04-22T18:04:46.776Z,14.10
2019-04-22T18:15:11.449Z,13.61
2019-04-22T18:17:44.993Z,13.49
2019-04-22T18:20:13.131Z,13.38
2019-04-22T18:22:38.208Z,13.27
2019-04-22T18:25:11.404Z,13.20
2019-04-22T18:28:00.943Z,13.16
2019-04-22T18:30:20.464Z,13.03
2019-04-22T18:33:00.297Z,12.91
2019-04-22T18:35:32.361Z,12.87
2019-04-22T18:38:09.232Z,12.75
2019-04-22T18:40:38.499Z,12.58
2019-04-22T18:43:17.175Z,12.53
2019-04-22T18:45:54.619Z,12.47
2019-04-22T18:48:08.746Z,12.42
2019-04-22T18:50:58.158Z,12.34
2019-04-22T18:53:44.808Z,12.34
2019-04-22T18:56:13.919Z,12.31
2019-04-22T18:58:34.360Z,12.25
2019-04-22T19:00:53.331Z,12.12
2019-04-22T19:03:30.026Z,12.09
2019-04-22T19:06:29.170Z,12.04
2019-04-22T19:08:59.119Z,12.03
2019-04-22T19:11:32.035Z,12.00
2019-04-22T19:14:05.985Z,11.99
2019-04-22T19:16:36.167Z,12.00
2019-04-22T19:21:37.696Z,12.02
2019-04-22T19:24:04.367Z,11.91
2019-04-22T19:26:50.070Z,11.81
2019-04-22T19:29:20.386Z,11.67
2019-04-22T19:31:52.337Z,11.53
2019-04-22T19:34:20.414Z,11.57
2019-04-22T19:36:54.455Z,11.59
2019-04-22T19:39:22.569Z,11.57
2019-04-22T19:42:00.914Z,11.53
2019-04-22T19:44:36.255Z,11.48
2019-04-22T19:49:48.111Z,11.36
2019-04-22T19:52:18.903Z,11.33
2019-04-22T19:54:46.746Z,11.30
2019-04-22T19:57:11.591Z,11.29
2019-04-22T19:59:45.225Z,11.25
2019-04-22T20:02:31.530Z,11.15
2019-04-22T20:05:26.158Z,11.08
2019-04-22T20:07:48.680Z,11.01
2019-04-22T20:10:25.140Z,10.91
2019-04-22T20:12:58.385Z,10.85
2019-04-22T20:15:26.931Z,10.83
2019-04-22T20:18:21.797Z,10.80
2019-04-22T20:20:40.954Z,10.78
2019-04-22T20:23:10.432Z,10.75
2019-04-22T20:25:46.369Z,10.66
2019-04-22T20:28:29.106Z,10.59
2019-04-22T20:30:55.069Z,10.50
2019-04-22T20:33:29.507Z,10.46
2019-04-22T20:36:03.390Z,10.45
2019-04-22T20:38:38.871Z,10.43
2019-04-22T20:41:10.496Z,10.39
2019-04-22T20:43:50.238Z,10.40
2019-04-22T20:46:19.205Z,10.38
2019-04-22T20:48:55.006Z,10.30
2019-04-22T20:51:24.414Z,10.24
2019-04-22T20:54:02.676Z,10.17
2019-04-22T20:56:25.169Z,10.08
2019-04-22T20:59:02.073Z,10.05
2019-04-22T21:01:39.206Z,10.04
2019-04-22T21:03:57.608Z,10.00
2019-04-22T21:06:42.292Z,10.00
2019-04-22T21:09:18.504Z,10.01
2019-04-22T21:11:48.388Z,9.92
2019-04-22T21:14:21.615Z,9.95
2019-04-22T21:17:07.638Z,9.86
2019-04-22T21:19:47.656Z,9.82
2019-04-22T21:22:18.102Z,9.77
2019-04-22T21:24:47.468Z,9.72
2019-04-22T21:27:20.989Z,9.63
2019-04-22T21:29:49.232Z,9.60
2019-04-22T21:32:31.396Z,9.52
2019-04-22T21:35:21.582Z,9.49
2019-04-22T21:37:39.843Z,9.43
2019-04-22T21:39:58.603Z,9.43
2019-04-22T21:42:41.744Z,9.51
2019-04-22T21:45:07.235Z,9.52
2019-04-22T21:47:49.972Z,9.51
2019-04-22T21:50:35.698Z,9.46
2019-04-22T21:53:00.671Z,9.44
2019-04-22T21:55:32.912Z,9.46
2019-04-22T21:58:07.996Z,9.46
2019-04-22T22:03:17.775Z,9.34
2019-04-22T22:05:39.173Z,9.26
2019-04-22T22:08:30.182Z,9.21
2019-04-22T22:10:53.532Z,9.14
2019-04-22T22:13:30.689Z,9.07
2019-04-22T22:15:59.270Z,9.08
2019-04-22T22:18:29.054Z,9.04
2019-04-22T22:21:25.295Z,9.03
2019-04-22T22:23:43.642Z,8.99
2019-04-22T22:26:06.830Z,8.92
2019-04-22T22:31:31.830Z,8.80
2019-04-22T22:33:54.187Z,8.77
2019-04-22T22:36:27.141Z,8.74
2019-04-22T22:39:00.327Z,8.69
2019-04-22T22:41:14.339Z,8.64
2019-04-22T22:43:50.531Z,8.65
2019-04-22T22:46:31.925Z,8.60
2019-04-22T22:49:18.348Z,8.57
2019-04-22T22:52:13.243Z,8.54
2019-04-22T22:54:24.014Z,8.51
2019-04-22T22:57:00.376Z,8.47
2019-04-22T22:59:33.113Z,8.43
2019-04-22T23:02:03.182Z,8.33
2019-04-22T23:04:39.842Z,8.38
2019-04-22T23:07:17.693Z,8.28
2019-04-22T23:09:45.786Z,8.34
2019-04-22T23:12:30.680Z,8.40
2019-04-22T23:14:50.027Z,8.46
2019-04-22T23:17:07.715Z,8.47
2019-04-22T23:19:40.452Z,8.42
2019-04-22T23:22:20.469Z,8.39
2019-04-22T23:24:54.452Z,8.32
2019-04-22T23:27:47.691Z,8.33
2019-04-22T23:30:18.428Z,8.29
2019-04-22T23:32:59.254Z,8.26
2019-04-22T23:35:33.605Z,8.26
2019-04-22T23:38:09.214Z,8.28
2019-04-22T23:40:44.355Z,8.33
2019-04-22T23:43:24.181Z,8.33
2019-04-22T23:45:53.321Z,8.31
2019-04-22T23:48:19.188Z,8.31
2019-04-22T23:50:55.831Z,8.29
2019-04-22T23:53:57.337Z,8.28
2019-04-22T23:56:16.906Z,8.28
2019-04-22T23:58:52.675Z,8.25
